createdAt,value
2022-11-19T00:01:26.416Z,36.45
2022-11-19T00:03:53.755Z,33.92
2022-11-19T00:06:26.872Z,33.55
2022-11-19T00:08:54.962Z,25.77
2022-11-19T00:11:43.298Z,28.23
2022-11-19T00:14:12.812Z,40.72
2022-11-19T00:16:41.258Z,31.08
2022-11-19T00:19:10.461Z,40.25
2022-11-19T00:21:38.085Z,30.08
2022-11-19T00:24:05.718Z,39.17
2022-11-19T00:26:33.226Z,25.27
2022-11-19T00:29:01.128Z,29.27
2022-11-19T00:31:28.588Z,23.77
2022-11-19T00:33:55.887Z,21.38
2022-11-19T00:36:23.849Z,22.00
2022-11-19T00:38:51.215Z,22.80
2022-11-19T00:41:19.548Z,20.38
2022-11-19T00:43:47.176Z,24.75
2022-11-19T00:46:14.828Z,25.73
2022-11-19T00:48:42.451Z,26.63
2022-11-19T00:51:10.661Z,28.73
2022-11-19T00:53:38.048Z,31.30
2022-11-19T00:56:09.307Z,30.35
2022-11-19T00:58:37.018Z,26.35
2022-11-19T01:01:05.499Z,25.40
2022-11-19T01:03:33.220Z,22.23
2022-11-19T01:06:01.409Z,27.05
2022-11-19T01:08:28.796Z,25.95
2022-11-19T01:10:56.350Z,22.00
2022-11-19T01:13:35.586Z,21.05
2022-11-19T01:16:15.296Z,24.58
2022-11-19T01:18:43.945Z,25.77
2022-11-19T01:21:12.670Z,21.83
2022-11-19T01:23:41.034Z,24.90
2022-11-19T01:26:09.699Z,19.98
2022-11-19T01:28:37.345Z,28.25
2022-11-19T01:31:13.734Z,30.90
2022-11-19T01:33:41.063Z,23.73
2022-11-19T01:36:12.446Z,17.45
2022-11-19T01:38:39.679Z,19.00
2022-11-19T01:41:08.140Z,18.75
2022-11-19T01:43:48.848Z,20.27
2022-11-19T01:46:22.448Z,18.77
2022-11-19T01:49:05.374Z,17.13
2022-11-19T01:51:49.084Z,18.95
2022-11-19T01:54:25.554Z,18.98
2022-11-19T01:56:56.494Z,17.42
2022-11-19T01:59:24.322Z,15.20
2022-11-19T02:01:51.721Z,19.83
2022-11-19T02:04:20.830Z,20.20
2022-11-19T02:06:48.549Z,21.58
2022-11-19T02:09:15.754Z,24.30
2022-11-19T02:12:02.406Z,21.05
2022-11-19T02:14:54.828Z,17.58
2022-11-19T02:17:22.694Z,18.67
2022-11-19T02:20:17.687Z,21.92
2022-11-19T02:23:13.204Z,19.83
2022-11-19T02:26:17.892Z,19.70
2022-11-19T02:29:08.894Z,21.73
2022-11-19T02:31:46.344Z,17.27
2022-11-19T02:34:22.361Z,19.33
2022-11-19T02:37:14.823Z,19.02
2022-11-19T02:39:51.333Z,19.73
2022-11-19T02:42:49.149Z,16.38
2022-11-19T02:45:28.100Z,19.17
2022-11-19T02:47:59.944Z,18.75
2022-11-19T02:50:33.663Z,19.88
2022-11-19T02:53:03.450Z,19.80
2022-11-19T02:55:31.466Z,20.42
2022-11-19T02:58:04.570Z,18.45
2022-11-19T03:01:16.878Z,17.85
2022-11-19T03:04:02.796Z,19.38
2022-11-19T03:06:32.811Z,20.08
2022-11-19T03:09:00.847Z,19.50
2022-11-19T03:11:30.410Z,19.63
2022-11-19T03:14:42.513Z,18.63
2022-11-19T03:17:26.668Z,14.85
2022-11-19T03:20:34.715Z,14.77
2022-11-19T03:23:09.728Z,16.35
2022-11-19T03:26:07.637Z,17.10
2022-11-19T03:28:38.049Z,16.70
2022-11-19T03:31:06.229Z,16.80
2022-11-19T03:33:43.199Z,15.75
2022-11-19T03:36:20.079Z,19.10
2022-11-19T03:38:52.854Z,17.90
2022-11-19T03:41:22.835Z,17.38
2022-11-19T03:44:04.652Z,16.20
2022-11-19T03:46:35.511Z,15.05
2022-11-19T03:49:06.613Z,16.58
2022-11-19T03:51:44.017Z,15.90
2022-11-19T03:54:11.811Z,16.85
2022-11-19T03:56:41.292Z,17.60
2022-11-19T03:59:11.318Z,16.95
2022-11-19T04:01:39.205Z,17.60
2022-11-19T04:04:25.058Z,17.70
2022-11-19T04:06:52.249Z,15.50
2022-11-19T04:09:19.867Z,17.65
2022-11-19T04:14:13.701Z,20.23
2022-11-19T04:16:41.184Z,20.05
2022-11-19T04:19:08.602Z,19.15
2022-11-19T04:21:35.782Z,18.83
2022-11-19T04:24:03.306Z,16.10
2022-11-19T04:26:30.517Z,16.50
2022-11-19T04:28:57.990Z,19.05
2022-11-19T04:31:25.226Z,19.52
2022-11-19T04:33:52.947Z,14.68
2022-11-19T04:36:20.391Z,14.88
2022-11-19T04:38:48.033Z,13.55
2022-11-19T04:41:15.195Z,13.82
2022-11-19T04:43:42.863Z,18.40
2022-11-19T04:46:10.002Z,16.65
2022-11-19T04:48:37.432Z,14.68
2022-11-19T04:51:04.684Z,14.82
2022-11-19T04:53:32.236Z,17.20
2022-11-19T04:55:59.384Z,17.42
2022-11-19T04:58:26.838Z,12.85
2022-11-19T05:00:54.092Z,15.48
2022-11-19T05:03:22.062Z,16.15
2022-11-19T05:05:49.933Z,14.25
2022-11-19T05:08:17.341Z,17.42
2022-11-19T05:10:45.163Z,15.50
2022-11-19T05:13:12.697Z,15.15
2022-11-19T05:15:39.987Z,17.10
2022-11-19T05:18:07.517Z,19.35
2022-11-19T05:20:34.724Z,15.90
2022-11-19T05:23:02.209Z,15.77
2022-11-19T05:25:29.489Z,17.17
2022-11-19T05:27:57.190Z,15.95
2022-11-19T05:30:24.464Z,16.42
2022-11-19T05:32:51.908Z,15.88
2022-11-19T05:35:19.205Z,14.95
2022-11-19T05:37:49.751Z,15.15
2022-11-19T05:40:17.623Z,15.20
2022-11-19T05:42:45.060Z,14.30
2022-11-19T05:45:12.723Z,16.20
2022-11-19T05:47:43.354Z,13.88
2022-11-19T05:50:13.497Z,13.93
2022-11-19T05:52:40.992Z,16.70
2022-11-19T05:55:08.331Z,16.60
2022-11-19T05:57:37.160Z,14.05
2022-11-19T06:00:05.679Z,16.65
2022-11-19T06:02:39.849Z,17.52
2022-11-19T06:05:07.496Z,15.68
2022-11-19T06:07:35.007Z,17.42
2022-11-19T06:10:02.706Z,22.52
2022-11-19T06:12:30.151Z,14.60
2022-11-19T06:14:57.430Z,16.33
2022-11-19T06:17:24.899Z,15.35
2022-11-19T06:19:52.086Z,22.58
2022-11-19T06:22:19.550Z,16.20
2022-11-19T06:24:46.704Z,18.70
2022-11-19T06:27:14.226Z,18.45
2022-11-19T06:29:41.336Z,18.05
2022-11-19T06:32:09.019Z,17.33
2022-11-19T06:34:36.284Z,18.80
2022-11-19T06:37:03.874Z,20.63
2022-11-19T06:39:31.093Z,18.08
2022-11-19T06:42:18.450Z,16.65
2022-11-19T06:44:45.635Z,20.45
2022-11-19T06:47:13.148Z,19.73
2022-11-19T06:49:40.350Z,17.75
2022-11-19T06:52:07.885Z,19.13
2022-11-19T06:54:36.740Z,20.58
2022-11-19T06:57:07.810Z,19.63
2022-11-19T06:59:35.295Z,18.50
2022-11-19T07:02:02.725Z,17.52
2022-11-19T07:04:30.016Z,22.13
2022-11-19T07:06:57.609Z,21.30
2022-11-19T07:09:24.951Z,17.95
2022-11-19T07:11:52.436Z,21.83
2022-11-19T07:14:19.777Z,27.92
2022-11-19T07:16:47.237Z,21.30
2022-11-19T07:19:14.387Z,23.00
2022-11-19T07:21:42.010Z,24.48
2022-11-19T07:24:10.452Z,26.88
2022-11-19T07:26:38.431Z,24.13
2022-11-19T07:29:07.896Z,24.73
2022-11-19T07:31:35.479Z,22.15
2022-11-19T07:34:05.652Z,22.20
2022-11-19T07:36:33.204Z,69.63
2022-11-19T07:39:00.331Z,23.25
2022-11-19T07:41:46.487Z,23.85
2022-11-19T07:44:13.660Z,34.67
2022-11-19T07:46:41.731Z,22.10
2022-11-19T07:49:08.917Z,23.08
2022-11-19T07:51:36.682Z,23.45
2022-11-19T07:54:04.292Z,22.80
2022-11-19T07:56:31.702Z,22.73
2022-11-19T07:59:02.255Z,22.63
2022-11-19T08:01:30.244Z,32.10
2022-11-19T08:03:57.731Z,22.85
2022-11-19T08:06:28.250Z,23.58
2022-11-19T08:08:56.360Z,21.92
2022-11-19T08:11:24.395Z,24.65
2022-11-19T08:13:52.416Z,22.50
2022-11-19T08:16:39.517Z,26.52
2022-11-19T08:19:09.651Z,27.23
2022-11-19T08:21:40.892Z,25.90
2022-11-19T08:24:09.734Z,31.13
2022-11-19T08:26:37.861Z,23.02
2022-11-19T08:29:05.603Z,20.83
2022-11-19T08:31:33.534Z,25.92
2022-11-19T08:34:04.182Z,22.35
2022-11-19T08:36:32.001Z,22.70
2022-11-19T08:39:00.600Z,23.52
2022-11-19T08:41:47.232Z,24.45
2022-11-19T08:44:14.952Z,26.63
2022-11-19T08:46:42.367Z,29.17
2022-11-19T08:49:09.884Z,26.05
2022-11-19T08:51:37.519Z,23.95
2022-11-19T08:54:05.607Z,21.75
2022-11-19T08:56:33.379Z,26.85
2022-11-19T08:59:03.007Z,23.17
2022-11-19T09:01:30.810Z,23.55
2022-11-19T09:03:58.510Z,26.33
2022-11-19T09:06:26.156Z,33.60
2022-11-19T09:08:53.388Z,28.45
2022-11-19T09:11:21.796Z,26.02
2022-11-19T09:13:49.240Z,26.88
2022-11-19T09:16:17.394Z,26.15
2022-11-19T09:18:44.873Z,33.25
2022-11-19T09:21:12.616Z,25.77
2022-11-19T09:23:41.495Z,19.30
2022-11-19T09:26:14.092Z,19.20
2022-11-19T09:28:42.335Z,22.58
2022-11-19T09:31:12.838Z,20.48
2022-11-19T09:33:44.382Z,22.90
2022-11-19T09:36:13.611Z,24.60
2022-11-19T09:38:41.278Z,21.27
2022-11-19T09:41:17.696Z,24.73
2022-11-19T09:44:04.716Z,20.65
2022-11-19T09:46:46.134Z,22.88
2022-11-19T09:49:18.862Z,21.48
2022-11-19T09:51:56.119Z,21.50
2022-11-19T09:56:54.852Z,19.27
2022-11-19T09:59:38.071Z,24.48
2022-11-19T10:02:20.579Z,23.80
2022-11-19T10:04:49.930Z,41.50
2022-11-19T10:07:52.791Z,23.70
2022-11-19T10:10:28.668Z,31.73
2022-11-19T10:13:11.762Z,46.70
2022-11-19T10:16:00.069Z,19.77
2022-11-19T10:18:27.445Z,38.70
2022-11-19T10:21:06.575Z,31.27
2022-11-19T10:23:54.762Z,22.88
2022-11-19T10:26:32.030Z,221.20
2022-11-19T10:29:00.032Z,118.65
2022-11-19T10:31:50.293Z,85.88
2022-11-19T10:34:23.950Z,30.02
2022-11-19T10:37:14.301Z,23.80
2022-11-19T10:39:48.280Z,21.35
2022-11-19T10:42:36.950Z,25.42
2022-11-19T10:45:19.118Z,48.90
2022-11-19T10:48:09.362Z,21.52
2022-11-19T10:50:37.177Z,24.83
2022-11-19T10:53:23.326Z,22.35
2022-11-19T10:55:54.777Z,15.85
2022-11-19T10:58:31.491Z,22.92
2022-11-19T11:01:02.389Z,19.67
2022-11-19T11:03:48.179Z,20.50
2022-11-19T11:06:15.699Z,19.95
2022-11-19T11:09:00.718Z,26.63
2022-11-19T11:11:50.205Z,20.65
2022-11-19T11:14:39.520Z,24.17
2022-11-19T11:17:20.946Z,21.75
2022-11-19T11:20:05.342Z,29.60
2022-11-19T11:22:33.570Z,29.60
2022-11-19T11:25:07.056Z,28.40
2022-11-19T11:27:35.823Z,25.42
2022-11-19T11:30:06.380Z,26.08
2022-11-19T11:32:34.061Z,19.52
2022-11-19T11:35:06.861Z,21.63
2022-11-19T11:37:35.919Z,19.95
2022-11-19T11:40:03.319Z,22.23
2022-11-19T11:42:30.863Z,23.88
2022-11-19T11:45:00.376Z,20.55
2022-11-19T11:47:39.600Z,20.55
2022-11-19T11:50:21.551Z,19.88
2022-11-19T11:52:54.319Z,20.30
2022-11-19T11:55:24.575Z,21.13
2022-11-19T11:58:02.908Z,20.40
2022-11-19T12:00:37.839Z,23.88
2022-11-19T12:03:05.274Z,25.90
2022-11-19T12:05:50.604Z,26.17
2022-11-19T12:08:27.071Z,24.38
2022-11-19T12:11:06.500Z,22.67
2022-11-19T12:13:45.706Z,20.60
2022-11-19T12:16:33.521Z,22.73
2022-11-19T12:19:38.365Z,18.50
2022-11-19T12:22:35.880Z,20.08
2022-11-19T12:25:25.779Z,21.98
2022-11-19T12:28:14.497Z,20.15
2022-11-19T12:30:53.449Z,19.02
2022-11-19T12:33:35.481Z,20.38
2022-11-19T12:36:19.070Z,19.10
2022-11-19T12:39:24.312Z,17.50
2022-11-19T12:42:03.909Z,18.48
2022-11-19T12:44:46.824Z,20.05
2022-11-19T12:47:50.843Z,19.85
2022-11-19T12:50:52.732Z,23.35
2022-11-19T12:53:23.341Z,19.42
2022-11-19T12:56:11.105Z,23.30
2022-11-19T12:59:04.185Z,18.45
2022-11-19T13:01:37.719Z,22.52
2022-11-19T13:04:05.293Z,20.15
2022-11-19T13:06:42.443Z,20.80
2022-11-19T13:09:30.831Z,21.88
2022-11-19T13:12:05.462Z,26.80
2022-11-19T13:14:40.146Z,26.83
2022-11-19T13:17:21.676Z,24.80
2022-11-19T13:19:53.842Z,30.67
2022-11-19T13:22:27.044Z,24.63
2022-11-19T13:25:05.612Z,26.40
2022-11-19T13:27:32.901Z,27.05
2022-11-19T13:30:16.418Z,27.67
2022-11-19T13:33:10.252Z,28.23
2022-11-19T13:35:43.765Z,25.70
2022-11-19T13:38:43.698Z,25.58
2022-11-19T13:41:13.469Z,27.10
2022-11-19T13:43:59.539Z,26.25
2022-11-19T13:46:39.093Z,21.97
2022-11-19T13:49:19.100Z,25.13
2022-11-19T13:52:07.504Z,25.27
2022-11-19T13:54:40.653Z,26.60
2022-11-19T13:57:22.558Z,25.70
2022-11-19T13:59:50.683Z,26.10
2022-11-19T14:02:40.804Z,26.27
2022-11-19T14:05:29.509Z,25.52
2022-11-19T14:08:05.698Z,25.30
2022-11-19T14:10:43.115Z,27.30
2022-11-19T14:13:31.785Z,24.85
2022-11-19T14:16:57.825Z,20.30
2022-11-19T14:19:44.201Z,22.27
2022-11-19T14:22:53.213Z,21.20
2022-11-19T14:25:57.744Z,25.20
2022-11-19T14:28:54.349Z,33.20
2022-11-19T14:31:22.010Z,23.83
2022-11-19T14:33:49.126Z,23.83
2022-11-19T14:36:25.705Z,23.25
2022-11-19T14:39:05.810Z,30.33
2022-11-19T14:41:35.184Z,27.60
2022-11-19T14:44:09.831Z,28.77
2022-11-19T14:46:48.771Z,24.05
2022-11-19T14:49:26.500Z,29.25
2022-11-19T14:51:56.743Z,33.10
2022-11-19T14:54:32.928Z,29.75
2022-11-19T14:57:07.900Z,28.27
2022-11-19T14:59:38.169Z,36.28
2022-11-19T15:02:24.312Z,38.15
2022-11-19T15:04:51.517Z,33.97
2022-11-19T15:07:36.520Z,35.85
2022-11-19T15:10:09.930Z,41.05
2022-11-19T15:12:43.372Z,52.05
2022-11-19T15:15:19.734Z,96.30
2022-11-19T15:17:49.081Z,116.88
2022-11-19T15:20:33.258Z,119.38
2022-11-19T15:23:22.068Z,99.47
2022-11-19T15:26:07.010Z,84.47
2022-11-19T15:28:45.902Z,72.00
2022-11-19T15:31:40.684Z,53.45
2022-11-19T15:34:38.617Z,49.00
2022-11-19T15:37:17.875Z,39.63
2022-11-19T15:39:52.588Z,38.08
2022-11-19T15:42:38.673Z,49.08
2022-11-19T15:45:16.486Z,43.20
2022-11-19T15:48:08.607Z,44.22
2022-11-19T15:50:37.307Z,45.15
2022-11-19T15:53:17.892Z,48.42
2022-11-19T15:55:56.000Z,40.85
2022-11-19T15:58:27.338Z,45.60
2022-11-19T16:00:55.466Z,46.28
2022-11-19T16:03:23.405Z,46.33
2022-11-19T16:06:03.364Z,46.53
2022-11-19T16:08:31.266Z,40.35
2022-11-19T16:11:20.451Z,45.92
2022-11-19T16:14:10.851Z,45.47
2022-11-19T16:16:58.215Z,48.30
2022-11-19T16:19:25.495Z,53.20
2022-11-19T16:22:02.845Z,52.40
2022-11-19T16:24:50.573Z,53.03
2022-11-19T16:27:24.279Z,51.28
2022-11-19T16:29:51.840Z,46.83
2022-11-19T16:32:21.890Z,57.72
2022-11-19T16:34:49.441Z,52.03
2022-11-19T16:37:20.729Z,52.47
2022-11-19T16:39:53.505Z,54.85
2022-11-19T16:42:26.884Z,56.65
2022-11-19T16:45:24.184Z,114.68
2022-11-19T16:48:00.824Z,131.07
2022-11-19T16:50:36.388Z,140.70
2022-11-19T16:53:06.409Z,168.07
2022-11-19T16:55:36.479Z,163.50
2022-11-19T16:58:14.927Z,157.52
2022-11-19T17:00:47.864Z,133.48
2022-11-19T17:03:25.887Z,118.68
2022-11-19T17:05:54.016Z,129.45
2022-11-19T17:08:33.013Z,116.53
2022-11-19T17:11:38.743Z,118.82
2022-11-19T17:14:25.831Z,110.95
2022-11-19T17:16:54.026Z,112.47
2022-11-19T17:19:32.608Z,113.03
2022-11-19T17:22:21.742Z,109.97
2022-11-19T17:24:50.102Z,117.90
2022-11-19T17:27:36.432Z,107.07
2022-11-19T17:30:22.280Z,101.10
2022-11-19T17:32:53.709Z,103.32
2022-11-19T17:35:38.910Z,108.55
2022-11-19T17:38:19.725Z,110.00
2022-11-19T17:40:58.991Z,97.72
2022-11-19T17:43:49.559Z,105.75
2022-11-19T17:46:18.031Z,100.90
2022-11-19T17:48:46.421Z,104.47
2022-11-19T17:51:16.999Z,111.90
2022-11-19T17:53:44.348Z,102.78
2022-11-19T17:56:26.894Z,96.45
2022-11-19T17:58:55.201Z,92.47
2022-11-19T18:01:23.513Z,76.72
2022-11-19T18:03:50.773Z,69.53
2022-11-19T18:06:18.713Z,64.75
2022-11-19T18:08:46.565Z,66.05
2022-11-19T18:11:17.772Z,64.47
2022-11-19T18:13:46.632Z,64.82
2022-11-19T18:16:20.123Z,70.65
2022-11-19T18:18:47.949Z,62.47
2022-11-19T18:21:18.225Z,57.30
2022-11-19T18:23:46.541Z,52.53
2022-11-19T18:26:17.265Z,60.60
2022-11-19T18:28:48.637Z,68.22
2022-11-19T18:31:20.634Z,61.03
2022-11-19T18:33:48.258Z,59.58
2022-11-19T18:36:16.769Z,59.15
2022-11-19T18:38:44.581Z,57.38
2022-11-19T18:41:13.881Z,54.70
2022-11-19T18:44:00.333Z,59.25
2022-11-19T18:46:27.924Z,59.08
2022-11-19T18:48:55.270Z,58.03
2022-11-19T18:51:25.521Z,62.20
2022-11-19T18:53:52.910Z,59.42
2022-11-19T18:56:20.326Z,62.72
2022-11-19T18:58:47.566Z,64.53
2022-11-19T19:01:16.527Z,66.25
2022-11-19T19:03:44.659Z,66.65
2022-11-19T19:06:12.292Z,75.95
2022-11-19T19:08:39.472Z,78.43
2022-11-19T19:11:26.924Z,78.25
2022-11-19T19:13:54.533Z,84.05
2022-11-19T19:16:23.054Z,73.10
2022-11-19T19:18:50.334Z,75.82
2022-11-19T19:21:19.849Z,78.97
2022-11-19T19:23:47.633Z,73.00
2022-11-19T19:26:18.062Z,70.50
2022-11-19T19:28:50.619Z,59.20
2022-11-19T19:31:19.574Z,64.80
2022-11-19T19:33:47.877Z,66.28
2022-11-19T19:36:16.689Z,72.85
2022-11-19T19:38:44.272Z,73.38
2022-11-19T19:41:21.051Z,74.25
2022-11-19T19:43:49.690Z,76.57
2022-11-19T19:46:19.186Z,68.68
2022-11-19T19:48:49.106Z,63.33
2022-11-19T19:51:17.849Z,67.00
2022-11-19T19:53:45.691Z,65.68
2022-11-19T19:56:15.903Z,66.93
2022-11-19T19:58:44.748Z,61.35
2022-11-19T20:01:13.592Z,58.88
2022-11-19T20:03:41.226Z,61.17
2022-11-19T20:06:21.457Z,56.63
2022-11-19T20:08:48.954Z,50.70
2022-11-19T20:11:18.902Z,51.20
2022-11-19T20:13:46.523Z,53.63
2022-11-19T20:16:18.466Z,45.83
2022-11-19T20:18:47.392Z,51.17
2022-11-19T20:21:27.043Z,47.42
2022-11-19T20:23:55.471Z,45.42
2022-11-19T20:26:28.963Z,45.67
2022-11-19T20:28:57.956Z,47.75
2022-11-19T20:31:26.894Z,41.70
2022-11-19T20:33:57.379Z,38.63
2022-11-19T20:36:27.608Z,50.35
2022-11-19T20:38:57.434Z,47.55
2022-11-19T20:41:43.832Z,43.97
2022-11-19T20:44:21.826Z,48.53
2022-11-19T20:46:54.425Z,47.05
2022-11-19T20:49:43.449Z,54.83
2022-11-19T20:52:11.210Z,50.25
2022-11-19T20:54:38.544Z,44.35
2022-11-19T20:57:06.125Z,51.65
2022-11-19T20:59:33.379Z,49.88
2022-11-19T21:02:00.956Z,51.88
2022-11-19T21:04:36.391Z,51.83
2022-11-19T21:07:05.192Z,44.38
2022-11-19T21:09:32.676Z,43.70
2022-11-19T21:12:00.216Z,45.88
2022-11-19T21:14:27.545Z,46.35
2022-11-19T21:16:55.015Z,45.60
2022-11-19T21:19:22.562Z,42.40
2022-11-19T21:21:50.330Z,44.42
2022-11-19T21:24:17.531Z,38.28
2022-11-19T21:26:45.419Z,39.75
2022-11-19T21:29:13.117Z,42.30
2022-11-19T21:31:44.004Z,42.90
2022-11-19T21:34:23.160Z,40.95
2022-11-19T21:36:50.738Z,41.28
2022-11-19T21:39:19.416Z,44.25
2022-11-19T21:41:47.145Z,40.38
2022-11-19T21:44:20.776Z,41.83
2022-11-19T21:46:49.224Z,43.30
2022-11-19T21:49:16.468Z,41.50
2022-11-19T21:51:44.263Z,39.38
2022-11-19T21:54:11.419Z,46.00
2022-11-19T21:56:39.267Z,47.70
2022-11-19T21:59:07.394Z,45.00
2022-11-19T22:01:35.480Z,46.67
2022-11-19T22:04:02.813Z,42.85
2022-11-19T22:06:31.975Z,52.22
2022-11-19T22:08:59.302Z,43.80
2022-11-19T22:11:29.462Z,47.08
2022-11-19T22:14:08.583Z,47.58
2022-11-19T22:16:38.780Z,45.55
2022-11-19T22:19:06.639Z,42.97
2022-11-19T22:21:35.565Z,43.80
2022-11-19T22:26:52.766Z,43.92
2022-11-19T22:29:20.342Z,41.30
2022-11-19T22:31:47.976Z,46.78
2022-11-19T22:34:15.200Z,49.03
2022-11-19T22:36:42.953Z,52.42
2022-11-19T22:39:10.290Z,52.65
2022-11-19T22:41:37.698Z,50.30
2022-11-19T22:44:05.461Z,51.50
2022-11-19T22:46:33.193Z,52.33
2022-11-19T22:49:00.408Z,55.67
2022-11-19T22:51:28.118Z,50.90
2022-11-19T22:53:55.924Z,47.97
2022-11-19T22:56:28.903Z,58.45
2022-11-19T22:58:58.390Z,52.10
2022-11-19T23:01:28.423Z,56.95
2022-11-19T23:03:56.986Z,58.65
2022-11-19T23:06:24.839Z,52.60
2022-11-19T23:08:52.849Z,48.80
2022-11-19T23:11:40.596Z,58.65
2022-11-19T23:16:37.543Z,55.65
2022-11-19T23:19:05.472Z,53.65
2022-11-19T23:21:33.374Z,54.40
2022-11-19T23:24:01.177Z,49.78
2022-11-19T23:26:30.825Z,51.97
2022-11-19T23:28:58.230Z,51.50
2022-11-19T23:31:31.160Z,48.35
2022-11-19T23:33:59.656Z,52.60
2022-11-19T23:36:30.082Z,57.33
2022-11-19T23:38:57.911Z,50.53
2022-11-19T23:41:27.328Z,48.40
2022-11-19T23:43:55.723Z,49.65
2022-11-19T23:46:31.668Z,52.45
2022-11-19T23:48:59.949Z,45.63
2022-11-19T23:51:32.798Z,51.67
2022-11-19T23:54:00.697Z,53.03
2022-11-19T23:56:30.591Z,50.53
2022-11-19T23:58:59.536Z,48.88
